Time;durP1;ratioP1;P1;durP2;ratioP2;P2;SDS_P1;SDS_P2;PMS_P1;PMS_P2;Temp;Humidity;BMP_temperature;BMP_pressure;BME280_temperature;BME280_humidity;BME280_pressure;Samples;Min_cycle;Max_cycle;Signal;HPM_P1;HPM_P2
2020/12/01 00:01:20;;;;;;;2.77;2.63;;;17.00;56.80;;;;;;5052051;28;20204;-90
2020/12/01 00:03:46;;;;;;;2.93;2.70;;;16.90;56.70;;;;;;5069848;28;20207;-89
2020/12/01 00:06:11;;;;;;;2.90;2.70;;;16.90;56.70;;;;;;5069516;28;20183;-89
2020/12/01 00:08:37;;;;;;;3.10;2.90;;;17.00;56.80;;;;;;5069513;28;20207;-89
2020/12/01 00:11:05;;;;;;;2.80;2.60;;;16.90;56.70;;;;;;5064215;28;20181;-89
2020/12/01 00:13:31;;;;;;;3.30;2.63;;;17.00;56.80;;;;;;5048649;28;20486;-90
2020/12/01 00:15:56;;;;;;;2.77;2.57;;;16.90;56.70;;;;;;5048485;28;20676;-89
2020/12/01 00:18:22;;;;;;;2.87;2.67;;;16.90;56.80;;;;;;5049587;28;20191;-89
2020/12/01 00:20:48;;;;;;;3.20;3.00;;;17.00;56.90;;;;;;5036467;28;20222;-89
2020/12/01 00:23:13;;;;;;;3.40;3.10;;;17.00;56.90;;;;;;5051679;28;20499;-89
2020/12/01 00:25:39;;;;;;;2.70;2.50;;;17.00;56.80;;;;;;5068202;28;20234;-89
2020/12/01 00:28:04;;;;;;;2.80;2.60;;;17.00;56.70;;;;;;5069561;28;20176;-89
2020/12/01 00:30:30;;;;;;;3.17;2.97;;;17.00;56.60;;;;;;5069133;28;20252;-89
2020/12/01 00:32:55;;;;;;;3.13;2.83;;;17.00;56.60;;;;;;5069572;28;20267;-88
2020/12/01 00:35:26;;;;;;;2.80;2.60;;;17.00;56.50;;;;;;5068849;28;20670;-90
2020/12/01 00:37:51;;;;;;;3.30;3.10;;;17.00;56.60;;;;;;5069333;28;20253;-88
2020/12/01 00:40:18;;;;;;;2.53;2.33;;;17.00;56.70;;;;;;5069540;28;21065;-89
2020/12/01 00:42:43;;;;;;;2.40;2.30;;;17.00;56.70;;;;;;5069519;28;20173;-89
2020/12/01 00:45:10;;;;;;;2.60;2.40;;;17.00;56.70;;;;;;5069075;28;20895;-89
2020/12/01 00:47:36;;;;;;;2.83;2.30;;;17.00;56.70;;;;;;5069384;28;20849;-89
2020/12/01 00:50:05;;;;;;;2.83;2.63;;;17.00;56.70;;;;;;5067003;28;20539;-89
2020/12/01 00:52:30;;;;;;;2.80;2.60;;;17.00;56.70;;;;;;5050587;28;20943;-90
2020/12/01 00:54:56;;;;;;;2.90;2.70;;;17.00;56.70;;;;;;5049801;28;20466;-90
2020/12/01 00:57:21;;;;;;;2.23;2.13;;;17.00;56.70;;;;;;5051095;28;20234;-90
2020/12/01 00:59:47;;;;;;;4.00;2.53;;;16.90;56.70;;;;;;5050857;28;20199;-89
2020/12/01 01:02:12;;;;;;;2.10;2.00;;;16.90;56.70;;;;;;5069306;28;20604;-90
2020/12/01 01:04:38;;;;;;;2.90;2.70;;;16.90;56.70;;;;;;5068802;28;20178;-89
2020/12/01 01:07:03;;;;;;;2.70;2.50;;;16.90;56.70;;;;;;5069121;28;20170;-89
2020/12/01 01:09:29;;;;;;;3.00;2.70;;;17.00;56.90;;;;;;5069427;28;20193;-89
2020/12/01 01:11:54;;;;;;;2.53;2.43;;;16.90;56.80;;;;;;5050773;28;20536;-89
2020/12/01 01:14:20;;;;;;;2.70;2.57;;;16.90;56.80;;;;;;5069131;28;20185;-90
2020/12/01 01:16:45;;;;;;;2.70;2.50;;;16.90;56.80;;;;;;5067412;28;20304;-90
2020/12/01 01:19:12;;;;;;;2.90;2.70;;;17.00;56.90;;;;;;5051316;28;20382;-90
2020/12/01 01:21:40;;;;;;;2.53;2.33;;;16.90;56.80;;;;;;5051041;28;20170;-89
2020/12/01 01:24:06;;;;;;;2.60;2.40;;;16.90;56.80;;;;;;5051124;28;20938;-89
2020/12/01 01:26:32;;;;;;;2.77;2.57;;;17.00;56.90;;;;;;5050379;28;20415;-89
2020/12/01 01:28:57;;;;;;;2.50;2.40;;;16.90;56.80;;;;;;5062535;28;20263;-90
2020/12/01 01:31:23;;;;;;;2.73;2.53;;;16.90;56.80;;;;;;5049028;28;20178;-89
2020/12/01 01:33:48;;;;;;;2.37;2.20;;;17.00;56.80;;;;;;5048096;28;20178;-90
2020/12/01 01:36:14;;;;;;;2.90;2.70;;;17.00;56.70;;;;;;5030288;28;20218;-89
2020/12/01 01:38:39;;;;;;;2.60;2.40;;;17.00;56.60;;;;;;5030442;28;20196;-90
2020/12/01 01:41:05;;;;;;;2.23;2.13;;;17.00;56.60;;;;;;5048830;28;20169;-89
2020/12/01 01:43:30;;;;;;;2.73;2.53;;;17.00;56.50;;;;;;5050479;28;20162;-90
2020/12/01 01:45:55;;;;;;;2.30;2.20;;;17.00;56.60;;;;;;5039130;28;20206;-90
2020/12/01 01:48:29;;;;;;;2.80;2.60;;;17.00;56.70;;;;;;5054226;28;20204;-89
2020/12/01 01:51:23;;;;;;;2.40;2.30;;;17.00;56.70;;;;;;5052679;28;20165;-89
2020/12/01 01:53:51;;;;;;;2.60;2.40;;;17.00;56.70;;;;;;5071766;28;20411;-89
2020/12/01 01:56:22;;;;;;;3.00;2.70;;;16.90;56.70;;;;;;5070177;28;21196;-89
2020/12/01 01:58:50;;;;;;;2.40;2.20;;;16.90;56.70;;;;;;5071931;28;20468;-89
2020/12/01 02:01:19;;;;;;;2.40;2.20;;;16.90;56.70;;;;;;5072753;28;20401;-89
2020/12/01 02:03:50;;;;;;;2.70;2.50;;;17.00;56.80;;;;;;5072376;28;20404;-90
2020/12/01 02:06:23;;;;;;;2.23;2.13;;;17.00;56.90;;;;;;5071346;28;20411;-89
2020/12/01 02:08:57;;;;;;;2.53;2.33;;;16.90;56.80;;;;;;5072234;28;20421;-90
2020/12/01 02:11:24;;;;;;;2.33;2.23;;;16.90;56.70;;;;;;5071745;28;20403;-88
2020/12/01 02:14:10;;;;;;;2.20;2.07;;;16.90;56.80;;;;;;5071397;28;20830;-89
2020/12/01 02:16:40;;;;;;;2.20;2.00;;;16.90;56.70;;;;;;5051926;28;20470;-89
2020/12/01 02:19:10;;;;;;;1.90;1.80;;;16.90;56.80;;;;;;5071490;28;20475;-89
2020/12/01 02:21:40;;;;;;;2.07;1.97;;;16.90;56.80;;;;;;5053780;28;20411;-90
2020/12/01 02:24:19;;;;;;;2.33;2.23;;;16.90;56.80;;;;;;5071917;28;20399;-89
2020/12/01 02:26:47;;;;;;;2.50;2.30;;;16.90;56.80;;;;;;5070306;28;20428;-89
2020/12/01 02:29:16;;;;;;;2.60;2.40;;;16.90;56.80;;;;;;5053785;28;20524;-89
2020/12/01 02:31:41;;;;;;;2.07;1.97;;;16.90;56.80;;;;;;5051284;28;20419;-89
2020/12/01 02:34:10;;;;;;;2.03;1.93;;;16.90;57.40;;;;;;5050996;28;20408;-90
2020/12/01 02:36:36;;;;;;;2.57;2.40;;;17.00;56.90;;;;;;5031842;28;20213;-90
2020/12/01 02:39:03;;;;;;;2.83;2.63;;;16.90;56.80;;;;;;5051102;28;20727;-90
2020/12/01 02:41:29;;;;;;;2.40;2.30;;;17.00;56.70;;;;;;5048080;28;20418;-90
2020/12/01 02:43:54;;;;;;;2.43;2.23;;;17.00;56.70;;;;;;5050975;28;20422;-89
2020/12/01 02:46:20;;;;;;;2.30;2.10;;;17.00;56.70;;;;;;5050538;28;20162;-89
2020/12/01 02:48:46;;;;;;;2.13;1.93;;;17.00;56.70;;;;;;5051263;28;20694;-89
2020/12/01 02:51:11;;;;;;;2.50;2.30;;;17.00;56.60;;;;;;5050377;28;20187;-90
2020/12/01 02:53:37;;;;;;;2.07;1.87;;;17.00;56.60;;;;;;5051611;28;20174;-89
2020/12/01 02:56:02;;;;;;;2.67;2.47;;;17.00;56.70;;;;;;5051089;28;20258;-89
2020/12/01 02:58:28;;;;;;;2.03;1.93;;;17.00;56.70;;;;;;5050818;28;20182;-89
2020/12/01 03:00:53;;;;;;;2.23;2.10;;;16.90;56.70;;;;;;5052606;28;20213;-90
2020/12/01 03:03:19;;;;;;;2.30;2.20;;;17.00;56.70;;;;;;5049940;28;20181;-89
2020/12/01 03:05:44;;;;;;;2.40;2.20;;;17.00;56.80;;;;;;5049021;28;20170;-89
2020/12/01 03:08:09;;;;;;;2.27;2.13;;;17.00;56.80;;;;;;5050098;28;20602;-90
2020/12/01 03:10:35;;;;;;;2.10;2.00;;;17.00;56.90;;;;;;5032942;28;20180;-90
2020/12/01 03:13:00;;;;;;;2.13;1.97;;;16.90;56.80;;;;;;5050705;28;20197;-89
2020/12/01 03:15:26;;;;;;;1.90;1.80;;;16.90;56.80;;;;;;5048728;28;20221;-89
2020/12/01 03:17:52;;;;;;;2.00;1.90;;;16.90;56.80;;;;;;5049884;28;20166;-89
2020/12/01 03:20:17;;;;;;;2.90;2.70;;;16.90;56.80;;;;;;5050788;28;20168;-89
2020/12/01 03:22:43;;;;;;;1.83;1.73;;;17.00;56.90;;;;;;5050844;28;20537;-90
2020/12/01 03:25:09;;;;;;;2.30;2.20;;;16.90;56.80;;;;;;5050053;28;20172;-89
2020/12/01 03:27:34;;;;;;;2.30;2.13;;;16.90;57.40;;;;;;5031471;28;20174;-89
2020/12/01 03:30:00;;;;;;;2.17;2.07;;;16.90;56.80;;;;;;5032291;28;20245;-89
2020/12/01 03:32:25;;;;;;;1.67;1.57;;;16.90;56.90;;;;;;5049033;28;20177;-89
2020/12/01 03:34:52;;;;;;;2.20;2.10;;;16.90;56.90;;;;;;5050224;28;20186;-89
2020/12/01 03:37:17;;;;;;;1.97;1.87;;;17.00;56.90;;;;;;5050205;28;20600;-89
2020/12/01 03:39:43;;;;;;;2.03;1.93;;;17.00;56.90;;;;;;5032613;28;20495;-89
2020/12/01 03:42:08;;;;;;;2.00;1.90;;;16.90;56.90;;;;;;5032469;28;20171;-90
2020/12/01 03:44:34;;;;;;;2.10;2.00;;;16.90;56.90;;;;;;5048386;28;20692;-89
2020/12/01 03:46:59;;;;;;;1.83;1.73;;;16.90;56.80;;;;;;5032067;28;20175;-89
2020/12/01 03:49:25;;;;;;;2.30;2.20;;;16.90;56.70;;;;;;5050110;28;20220;-88
2020/12/01 03:51:50;;;;;;;2.20;2.00;;;17.00;56.70;;;;;;5050191;28;20189;-89
2020/12/01 03:54:16;;;;;;;2.10;2.00;;;17.00;56.70;;;;;;5050071;28;20174;-89
2020/12/01 03:56:42;;;;;;;2.63;2.43;;;17.00;56.70;;;;;;5031503;28;20258;-89
2020/12/01 03:59:07;;;;;;;1.80;1.70;;;17.00;56.60;;;;;;5049919;28;20670;-88
2020/12/01 04:01:33;;;;;;;1.67;1.57;;;17.00;56.60;;;;;;5050144;28;20407;-89
2020/12/01 04:03:59;;;;;;;3.60;2.33;;;17.00;56.70;;;;;;5032212;28;20715;-90
2020/12/01 04:06:24;;;;;;;2.33;2.13;;;17.00;56.80;;;;;;5049021;28;20171;-89
2020/12/01 04:08:50;;;;;;;1.73;1.63;;;16.90;56.70;;;;;;5031871;28;20275;-89
2020/12/01 04:11:16;;;;;;;2.40;2.30;;;17.00;56.80;;;;;;5049905;28;20708;-89
2020/12/01 04:13:42;;;;;;;3.97;1.90;;;17.00;56.90;;;;;;5048503;28;20244;-89
2020/12/01 04:16:07;;;;;;;1.80;1.70;;;16.90;56.80;;;;;;5049303;28;20481;-89
2020/12/01 04:18:33;;;;;;;2.33;2.13;;;17.00;56.90;;;;;;5049384;28;20260;-89
2020/12/01 04:20:58;;;;;;;1.93;1.83;;;16.90;56.80;;;;;;5031938;28;20709;-90
2020/12/01 04:23:24;;;;;;;2.10;1.90;;;16.90;56.80;;;;;;5031769;28;20262;-89
2020/12/01 04:25:50;;;;;;;2.43;2.23;;;16.90;56.80;;;;;;5049178;28;20175;-89
2020/12/01 04:28:15;;;;;;;1.70;1.60;;;17.00;56.90;;;;;;5049292;28;20203;-90
2020/12/01 04:30:41;;;;;;;1.97;1.87;;;16.90;56.90;;;;;;5031680;28;20187;-89
2020/12/01 04:33:06;;;;;;;1.70;1.60;;;17.00;56.90;;;;;;5049526;28;20538;-90
2020/12/01 04:35:32;;;;;;;1.73;1.63;;;16.90;56.90;;;;;;5048942;28;20189;-90
2020/12/01 04:38:01;;;;;;;1.90;1.80;;;16.90;56.80;;;;;;5049107;28;20223;-89
2020/12/01 04:40:33;;;;;;;2.03;1.93;;;16.90;56.80;;;;;;5049551;28;20233;-89
2020/12/01 04:43:41;;;;;;;2.00;1.90;;;16.90;56.80;;;;;;5049484;28;20433;-88
2020/12/01 04:46:12;;;;;;;2.00;1.90;;;17.00;56.90;;;;;;4967747;28;20463;-89
2020/12/01 04:48:38;;;;;;;3.57;1.70;;;16.90;56.90;;;;;;4967946;28;20535;-89
2020/12/01 04:51:21;;;;;;;2.20;2.10;;;16.90;56.90;;;;;;4993807;28;20511;-90
2020/12/01 04:54:33;;;;;;;2.40;2.30;;;16.90;56.80;;;;;;5031785;28;20158;-89
2020/12/01 04:57:41;;;;;;;1.60;1.50;;;17.00;56.80;;;;;;5049548;28;20790;-89
2020/12/01 05:00:30;;;;;;;2.00;1.80;;;17.00;56.70;;;;;;5031436;28;20461;-89
2020/12/01 05:03:43;;;;;;;2.10;2.00;;;17.00;56.70;;;;;;5049766;28;20405;-89
2020/12/01 05:09:37;;;;;;;1.90;1.80;;;17.00;56.80;;;;;;5049858;28;20438;-90
2020/12/01 05:12:09;;;;;;;2.00;1.87;;;17.00;56.90;;;;;;5049622;28;20543;-89
2020/12/01 05:14:53;;;;;;;2.20;2.10;;;17.00;56.90;;;;;;5048811;28;20918;-87
2020/12/01 05:17:41;;;;;;;1.77;1.67;;;16.90;56.80;;;;;;5050435;28;20440;-88
2020/12/01 05:20:07;;;;;;;1.80;1.70;;;16.90;56.80;;;;;;5053037;28;20427;-89
2020/12/01 05:22:33;;;;;;;1.63;1.53;;;16.90;56.80;;;;;;5034961;28;20423;-89
2020/12/01 05:24:58;;;;;;;1.70;1.60;;;16.90;56.90;;;;;;5041367;28;20965;-88
2020/12/01 05:27:30;;;;;;;1.67;1.57;;;17.00;57.00;;;;;;5071280;28;20215;-88
2020/12/01 05:30:22;;;;;;;1.50;1.40;;;16.90;56.90;;;;;;5067919;28;20200;-88
2020/12/01 05:33:07;;;;;;;2.10;1.97;;;16.90;56.90;;;;;;5022866;28;20521;-89
2020/12/01 05:35:35;;;;;;;1.60;1.50;;;16.90;56.90;;;;;;5071617;28;20775;-88
2020/12/01 05:38:02;;;;;;;1.77;1.67;;;17.00;56.90;;;;;;5069685;28;21222;-90
2020/12/01 05:40:31;;;;;;;2.10;2.00;;;16.90;56.90;;;;;;5054403;28;20816;-88
2020/12/01 05:42:57;;;;;;;1.97;1.87;;;16.90;56.90;;;;;;5064828;28;20427;-89
2020/12/01 05:45:43;;;;;;;1.63;1.53;;;16.90;57.00;;;;;;5033847;28;20500;-88
2020/12/01 05:48:33;;;;;;;2.03;1.93;;;16.90;57.00;;;;;;5051290;28;20418;-89
2020/12/01 05:51:13;;;;;;;1.60;1.30;;;16.90;57.00;;;;;;5052296;28;20843;-89
2020/12/01 05:53:40;;;;;;;1.63;1.53;;;16.90;57.00;;;;;;5058819;28;20483;-89
2020/12/01 05:56:17;;;;;;;1.70;1.60;;;16.90;57.00;;;;;;5051246;28;20447;-89
2020/12/01 05:58:46;;;;;;;1.70;1.60;;;16.90;57.00;;;;;;5034047;28;20466;-89
2020/12/01 06:01:12;;;;;;;1.90;1.80;;;16.90;57.00;;;;;;5051948;28;20407;-88
2020/12/01 06:03:57;;;;;;;1.70;1.60;;;17.00;57.00;;;;;;5034180;28;20403;-89
2020/12/01 06:06:30;;;;;;;1.90;1.80;;;16.90;56.90;;;;;;5062645;28;20420;-89
2020/12/01 06:09:08;;;;;;;1.83;1.73;;;17.00;56.90;;;;;;5053662;28;20467;-89
2020/12/01 06:11:39;;;;;;;1.77;1.67;;;17.00;56.80;;;;;;5071701;28;20753;-89
2020/12/01 06:14:16;;;;;;;1.70;1.60;;;17.00;56.80;;;;;;5071542;28;20406;-89
2020/12/01 06:16:50;;;;;;;1.80;1.70;;;17.00;56.90;;;;;;5070908;28;20455;-88
2020/12/01 06:19:32;;;;;;;1.70;1.60;;;16.90;56.90;;;;;;5071673;28;20422;-89
2020/12/01 06:22:19;;;;;;;1.60;1.50;;;16.90;56.90;;;;;;5054394;28;20428;-89
2020/12/01 06:25:03;;;;;;;1.90;1.80;;;16.90;56.90;;;;;;5062503;28;20821;-88
2020/12/01 06:28:01;;;;;;;1.67;1.57;;;17.00;57.00;;;;;;5051690;28;20416;-89
2020/12/01 06:30:50;;;;;;;1.70;1.60;;;17.00;57.00;;;;;;5056897;28;20409;-90
2020/12/01 06:33:30;;;;;;;1.77;1.67;;;16.90;57.00;;;;;;5058403;28;20500;-90
2020/12/01 06:36:42;;;;;;;1.70;1.60;;;16.90;57.00;;;;;;5049458;28;20465;-89
2020/12/01 06:39:17;;;;;;;1.67;1.57;;;16.90;57.00;;;;;;5020061;28;20519;-90
2020/12/01 06:42:01;;;;;;;1.90;1.80;;;16.90;57.00;;;;;;5051185;28;20415;-90
2020/12/01 06:44:27;;;;;;;1.70;1.60;;;16.90;57.00;;;;;;5050982;28;20414;-89
2020/12/01 06:46:56;;;;;;;1.47;1.37;;;16.90;57.00;;;;;;5053147;28;20416;-89
2020/12/01 06:49:28;;;;;;;2.03;1.70;;;16.90;57.00;;;;;;5051248;28;20855;-89
2020/12/01 06:51:57;;;;;;;1.60;1.50;;;16.90;57.00;;;;;;5057248;28;20412;-90
2020/12/01 06:54:23;;;;;;;1.77;1.67;;;16.90;57.10;;;;;;5061102;28;20790;-90
2020/12/01 06:57:03;;;;;;;2.43;2.23;;;16.90;57.10;;;;;;5043438;28;20449;-89
2020/12/01 06:59:28;;;;;;;1.60;1.50;;;16.90;57.10;;;;;;5063210;28;20197;-90
2020/12/01 07:02:06;;;;;;;1.70;1.60;;;16.90;57.10;;;;;;5051130;28;20415;-90
2020/12/01 07:04:32;;;;;;;1.63;1.53;;;16.90;57.10;;;;;;5046817;28;20253;-90
2020/12/01 07:07:02;;;;;;;1.50;1.40;;;16.90;57.10;;;;;;5067483;28;20515;-90
2020/12/01 07:09:45;;;;;;;1.80;1.70;;;17.00;57.00;;;;;;5051050;28;20191;-90
2020/12/01 07:12:13;;;;;;;1.60;1.50;;;17.00;57.00;;;;;;5048205;28;21138;-90
2020/12/01 07:15:09;;;;;;;2.20;2.10;;;16.90;56.90;;;;;;5038787;28;20413;-89
2020/12/01 07:17:35;;;;;;;1.50;1.40;;;17.00;56.90;;;;;;5070372;28;20547;-91
2020/12/01 07:20:53;;;;;;;1.60;1.50;;;17.00;56.90;;;;;;5052858;28;20984;-91
2020/12/01 07:23:41;;;;;;;1.77;1.67;;;17.00;56.90;;;;;;4992517;28;20207;-91
2020/12/01 07:26:20;;;;;;;2.07;1.97;;;16.90;56.90;;;;;;5052012;28;20441;-90
2020/12/01 07:28:48;;;;;;;1.70;1.60;;;16.90;56.90;;;;;;5050200;28;20432;-91
2020/12/01 07:31:31;;;;;;;1.70;1.60;;;16.90;57.00;;;;;;5040697;28;20571;-90
2020/12/01 07:34:04;;;;;;;1.70;1.60;;;16.90;57.00;;;;;;5039900;28;20467;-89
2020/12/01 07:36:33;;;;;;;1.70;1.60;;;16.90;56.90;;;;;;5051845;28;20463;-90
2020/12/01 07:39:24;;;;;;;1.57;1.47;;;16.90;57.00;;;;;;5070506;28;20426;-89
2020/12/01 07:41:53;;;;;;;2.30;2.10;;;17.00;57.10;;;;;;5051859;28;20400;-89
2020/12/01 07:44:30;;;;;;;1.80;1.70;;;16.90;57.60;;;;;;5044036;28;20420;-90
2020/12/01 07:47:11;;;;;;;1.80;1.70;;;16.90;57.10;;;;;;5050941;28;20463;-88
2020/12/01 07:49:36;;;;;;;1.60;1.50;;;16.90;57.00;;;;;;5036455;28;20473;-90
2020/12/01 07:52:14;;;;;;;2.00;1.90;;;16.90;57.00;;;;;;5052307;28;20451;-89
2020/12/01 07:54:43;;;;;;;1.57;1.47;;;16.90;57.00;;;;;;5049713;28;20164;-90
2020/12/01 07:57:22;;;;;;;1.90;1.80;;;16.90;57.00;;;;;;5049768;28;20447;-90
2020/12/01 07:59:50;;;;;;;1.70;1.60;;;16.90;57.00;;;;;;5037881;28;20476;-89
2020/12/01 08:02:18;;;;;;;1.60;1.50;;;16.90;57.00;;;;;;5052702;28;20855;-90
2020/12/01 08:04:43;;;;;;;1.97;1.87;;;16.90;57.10;;;;;;5049294;28;20512;-90
2020/12/01 08:07:16;;;;;;;2.03;1.93;;;16.90;57.10;;;;;;5049396;28;20552;-89
2020/12/01 08:09:42;;;;;;;2.03;1.80;;;16.90;57.00;;;;;;5050091;28;20211;-89
2020/12/01 08:12:13;;;;;;;1.93;1.80;;;16.90;57.00;;;;;;5049741;28;20413;-89
2020/12/01 08:14:40;;;;;;;1.80;1.70;;;16.90;57.00;;;;;;5050603;28;20397;-88
2020/12/01 08:17:19;;;;;;;2.53;2.30;;;16.90;57.00;;;;;;5060991;28;20950;-89
2020/12/01 08:19:46;;;;;;;2.43;1.90;;;17.00;57.00;;;;;;5068028;28;20954;-89
2020/12/01 08:22:17;;;;;;;1.70;1.60;;;16.90;56.90;;;;;;5069360;28;20499;-89
2020/12/01 08:24:45;;;;;;;1.90;1.80;;;17.00;56.90;;;;;;5069205;28;20869;-89
2020/12/01 08:27:30;;;;;;;1.73;1.63;;;17.00;56.90;;;;;;5069045;28;20391;-89
2020/12/01 08:29:58;;;;;;;2.10;1.97;;;16.90;56.90;;;;;;5051778;28;20504;-89
2020/12/01 08:32:48;;;;;;;1.97;1.80;;;16.90;56.90;;;;;;5069861;28;20460;-88
2020/12/01 08:35:38;;;;;;;2.20;2.00;;;16.90;57.00;;;;;;5068285;28;20437;-89
2020/12/01 08:38:37;;;;;;;2.07;1.97;;;17.00;57.10;;;;;;5069529;28;20465;-89
2020/12/01 08:41:38;;;;;;;1.90;1.80;;;16.90;57.10;;;;;;5051779;28;20418;-88
2020/12/01 08:44:40;;;;;;;2.37;2.17;;;16.90;57.10;;;;;;5069950;28;20384;-89
2020/12/01 08:47:07;;;;;;;1.97;1.87;;;16.90;57.10;;;;;;5069674;28;20419;-90
2020/12/01 08:49:45;;;;;;;1.90;1.80;;;16.90;57.10;;;;;;5051656;28;20427;-88
2020/12/01 08:52:36;;;;;;;1.73;1.60;;;16.90;57.10;;;;;;5070552;28;20995;-89
2020/12/01 08:55:23;;;;;;;2.23;1.60;;;16.90;57.10;;;;;;5073075;28;20461;-89
2020/12/01 08:58:16;;;;;;;2.70;2.33;;;16.90;57.10;;;;;;5073327;28;20443;-89
2020/12/01 09:01:00;;;;;;;2.77;2.53;;;16.90;57.10;;;;;;5055730;28;20452;-89
2020/12/01 09:03:28;;;;;;;1.93;1.63;;;16.90;57.20;;;;;;5055681;28;20404;-89
2020/12/01 09:05:54;;;;;;;2.30;2.13;;;16.90;57.20;;;;;;5072730;28;20411;-89
2020/12/01 09:13:52;;;;;;;1.83;1.73;;;16.90;57.10;;;;;;5073647;28;20385;-89
2020/12/01 09:16:23;;;;;;;2.40;2.10;;;16.90;57.10;;;;;;5054731;28;21053;-89
2020/12/01 09:19:23;;;;;;;2.03;1.93;;;16.90;57.20;;;;;;5073061;28;20490;-89
2020/12/01 09:21:53;;;;;;;2.20;2.10;;;16.90;57.10;;;;;;5071536;28;20413;-89
2020/12/01 09:24:27;;;;;;;2.03;1.83;;;16.90;57.10;;;;;;5073130;28;20391;-88
2020/12/01 09:27:09;;;;;;;2.60;2.40;;;16.90;57.00;;;;;;5054662;28;21245;-90
2020/12/01 09:29:35;;;;;;;1.87;1.73;;;16.90;57.00;;;;;;5073265;28;20549;-89
2020/12/01 09:32:05;;;;;;;2.07;1.97;;;17.00;57.00;;;;;;5073273;28;20504;-89
2020/12/01 09:34:31;;;;;;;1.90;1.80;;;17.00;57.00;;;;;;5072659;28;20448;-89
2020/12/01 09:37:01;;;;;;;2.00;1.90;;;17.00;57.10;;;;;;5054517;28;20559;-89
2020/12/01 09:39:28;;;;;;;2.43;2.13;;;16.90;57.00;;;;;;5072731;28;20459;-89
2020/12/01 09:42:02;;;;;;;2.40;2.20;;;16.90;57.10;;;;;;5054905;28;20413;-90
2020/12/01 09:47:18;;;;;;;2.27;2.17;;;16.90;57.10;;;;;;5072757;28;20970;-90
2020/12/01 09:49:44;;;;;;;2.00;1.80;;;17.00;57.20;;;;;;5054640;28;20513;-88
2020/12/01 09:52:21;;;;;;;2.00;1.80;;;16.90;57.20;;;;;;5054688;28;20455;-89
2020/12/01 10:04:29;;;;;;;3.00;2.80;;;16.90;57.20;;;;;;5072518;28;20438;-89
2020/12/01 10:08:33;;;;;;;2.30;2.10;;;16.90;57.20;;;;;;5072633;28;20379;-89
2020/12/01 10:11:26;;;;;;;2.30;2.20;;;16.90;57.20;;;;;;5073016;28;20958;-89
2020/12/01 10:14:01;;;;;;;2.97;2.67;;;16.90;57.20;;;;;;5072749;28;20473;-89
2020/12/01 10:16:46;;;;;;;3.20;2.07;;;16.90;57.20;;;;;;5071784;28;21020;-89
2020/12/01 10:19:43;;;;;;;2.17;1.97;;;16.90;57.20;;;;;;5072450;28;20417;-89
2020/12/01 10:23:19;;;;;;;2.03;1.93;;;16.90;57.30;;;;;;5072277;28;20412;-89
2020/12/01 10:35:41;;;;;;;2.13;2.00;;;16.90;57.10;;;;;;5071191;28;20439;-89
2020/12/01 10:38:07;;;;;;;2.30;2.10;;;16.90;57.10;;;;;;5071289;28;20405;-88
2020/12/01 10:40:33;;;;;;;2.40;2.20;;;17.00;57.10;;;;;;5071803;28;20630;-89
2020/12/01 10:42:59;;;;;;;2.17;2.00;;;16.90;57.10;;;;;;5071749;28;20175;-89
2020/12/01 10:45:26;;;;;;;2.90;2.70;;;16.90;57.10;;;;;;5071006;28;20163;-89
2020/12/01 10:47:52;;;;;;;2.80;2.50;;;16.90;57.20;;;;;;5071330;28;20893;-88
2020/12/01 10:50:22;;;;;;;2.50;2.30;;;16.90;57.20;;;;;;5071448;28;20410;-89
2020/12/01 10:52:47;;;;;;;2.47;2.27;;;16.90;57.20;;;;;;5071800;28;20161;-89
2020/12/01 10:55:14;;;;;;;2.70;2.50;;;17.00;57.30;;;;;;5070712;28;20416;-89
2020/12/01 10:57:40;;;;;;;1.90;1.80;;;16.90;57.20;;;;;;5071045;28;20210;-89
2020/12/01 11:00:11;;;;;;;2.20;2.00;;;16.90;57.20;;;;;;5053335;28;20961;-88
2020/12/01 11:02:36;;;;;;;2.47;2.27;;;16.90;57.20;;;;;;5071420;28;20535;-89
2020/12/01 11:05:07;;;;;;;2.03;1.93;;;16.90;57.20;;;;;;5052551;28;20415;-89
2020/12/01 11:07:32;;;;;;;2.30;2.10;;;16.90;57.20;;;;;;5070847;28;20579;-90
2020/12/01 11:09:58;;;;;;;2.60;2.40;;;16.90;57.20;;;;;;5070958;28;20425;-89
2020/12/01 11:12:23;;;;;;;2.47;2.27;;;16.90;57.30;;;;;;5053171;28;20201;-87
2020/12/01 11:14:49;;;;;;;2.40;2.20;;;16.90;57.30;;;;;;5070393;28;20179;-88
2020/12/01 11:17:14;;;;;;;3.30;2.17;;;16.90;57.30;;;;;;5052850;28;20201;-88
2020/12/01 11:19:40;;;;;;;2.43;2.23;;;16.90;57.30;;;;;;5071136;28;20188;-88
2020/12/01 11:22:05;;;;;;;2.40;2.20;;;16.90;57.40;;;;;;5070869;28;20168;-89
2020/12/01 11:24:31;;;;;;;2.67;2.47;;;16.90;57.30;;;;;;5052523;28;20174;-89
2020/12/01 11:26:56;;;;;;;2.27;2.07;;;16.90;57.30;;;;;;5070362;28;20174;-89
2020/12/01 11:29:22;;;;;;;2.60;2.30;;;16.90;57.30;;;;;;5052715;28;20291;-88
2020/12/01 11:31:47;;;;;;;2.60;2.40;;;16.90;57.30;;;;;;5070605;28;20179;-89
2020/12/01 11:34:13;;;;;;;2.60;2.40;;;16.90;57.40;;;;;;5070254;28;20650;-89
2020/12/01 11:36:40;;;;;;;2.67;2.47;;;16.90;57.40;;;;;;5068891;28;20202;-89
2020/12/01 11:39:09;;;;;;;2.57;2.37;;;16.90;57.30;;;;;;5070472;28;20437;-89
2020/12/01 11:41:35;;;;;;;2.07;1.97;;;16.90;57.20;;;;;;5070574;28;20445;-88
2020/12/01 11:44:00;;;;;;;2.37;2.17;;;16.90;57.20;;;;;;5070614;28;20481;-88
2020/12/01 11:46:26;;;;;;;2.10;2.00;;;16.90;57.20;;;;;;5070034;28;20411;-88
2020/12/01 11:48:52;;;;;;;2.37;2.17;;;17.00;57.20;;;;;;5070260;28;20245;-89
2020/12/01 11:51:17;;;;;;;2.20;2.03;;;16.90;57.20;;;;;;5070470;28;20305;-88
2020/12/01 11:53:43;;;;;;;2.00;1.90;;;16.90;57.20;;;;;;5070281;28;20633;-88
2020/12/01 11:56:10;;;;;;;2.20;2.00;;;17.00;57.30;;;;;;5069671;28;20199;-89
2020/12/01 11:58:35;;;;;;;2.60;2.40;;;16.90;57.30;;;;;;5069943;28;20415;-89
2020/12/01 12:01:02;;;;;;;2.07;1.90;;;16.90;57.30;;;;;;5070256;28;20454;-88
2020/12/01 12:03:27;;;;;;;2.17;2.07;;;16.90;57.30;;;;;;5070095;28;20164;-89
2020/12/01 12:05:53;;;;;;;2.07;1.97;;;17.00;57.40;;;;;;5069576;28;20418;-89
2020/12/01 12:08:18;;;;;;;2.40;2.20;;;16.90;57.30;;;;;;5069893;28;20277;-89
2020/12/01 12:10:44;;;;;;;1.97;1.83;;;16.90;57.30;;;;;;5070129;28;20220;-90
2020/12/01 12:13:09;;;;;;;2.20;2.10;;;16.90;57.40;;;;;;5070073;28;20168;-89
2020/12/01 12:15:35;;;;;;;2.20;2.10;;;16.90;57.40;;;;;;5069490;28;20626;-89
2020/12/01 12:18:00;;;;;;;2.33;2.13;;;16.90;57.40;;;;;;5069833;28;20180;-90
2020/12/01 12:20:26;;;;;;;1.93;1.83;;;16.90;57.40;;;;;;5070186;28;20192;-90
2020/12/01 12:22:51;;;;;;;2.23;2.03;;;16.90;57.40;;;;;;5070118;28;20167;-90
2020/12/01 12:25:17;;;;;;;2.43;2.23;;;16.90;57.40;;;;;;5069580;28;20172;-89
2020/12/01 12:27:42;;;;;;;1.73;1.63;;;16.90;57.50;;;;;;5069222;28;20246;-90
2020/12/01 12:30:08;;;;;;;2.13;2.03;;;16.90;57.50;;;;;;5051845;28;20198;-89
2020/12/01 12:32:34;;;;;;;2.10;2.00;;;16.90;57.50;;;;;;5069668;28;20173;-89
2020/12/01 12:35:00;;;;;;;2.37;2.27;;;16.90;57.50;;;;;;5050995;28;20224;-89
2020/12/01 12:37:26;;;;;;;2.30;2.10;;;16.90;57.50;;;;;;5069383;28;20469;-89
2020/12/01 12:39:51;;;;;;;2.03;1.93;;;16.90;57.50;;;;;;5069646;28;20940;-88
2020/12/01 12:42:17;;;;;;;2.33;2.13;;;16.90;57.50;;;;;;5069816;28;20530;-88
2020/12/01 12:44:42;;;;;;;2.33;2.23;;;16.90;57.40;;;;;;5069137;28;20623;-89
2020/12/01 12:47:08;;;;;;;1.60;1.50;;;16.90;57.30;;;;;;5051569;28;20173;-89
2020/12/01 12:49:33;;;;;;;2.20;2.00;;;17.00;57.40;;;;;;5069503;28;20204;-89
2020/12/01 12:51:59;;;;;;;2.40;2.20;;;17.00;57.40;;;;;;5051657;28;20663;-90
2020/12/01 12:54:25;;;;;;;2.30;2.10;;;17.00;57.30;;;;;;5069616;28;20787;-89
2020/12/01 12:56:50;;;;;;;1.97;1.87;;;16.90;57.30;;;;;;5069144;28;20195;-90
2020/12/01 12:59:16;;;;;;;1.90;1.80;;;16.90;57.30;;;;;;5051526;28;20605;-89
2020/12/01 13:01:42;;;;;;;1.93;1.83;;;16.90;57.30;;;;;;5069488;28;20806;-90
2020/12/01 13:04:07;;;;;;;2.07;1.97;;;16.90;57.40;;;;;;5069434;28;20224;-90
2020/12/01 13:06:33;;;;;;;1.90;1.80;;;17.00;57.50;;;;;;5068698;28;20227;-90
2020/12/01 13:08:58;;;;;;;2.37;2.17;;;16.90;57.40;;;;;;5069394;28;20196;-90
2020/12/01 13:11:24;;;;;;;1.87;1.77;;;16.90;57.40;;;;;;5069421;28;20171;-89
2020/12/01 13:13:49;;;;;;;2.20;2.00;;;16.90;57.40;;;;;;5051376;28;20179;-90
2020/12/01 13:16:15;;;;;;;3.27;2.60;;;16.90;57.50;;;;;;5068664;28;20539;-90
2020/12/01 13:18:41;;;;;;;2.63;2.43;;;16.90;57.10;;;;;;5051612;28;20200;-91
2020/12/01 13:21:07;;;;;;;2.63;2.43;;;16.90;57.10;;;;;;5069429;28;20212;-89
2020/12/01 13:23:32;;;;;;;5.73;2.17;;;16.90;57.20;;;;;;5069399;28;20909;-90
2020/12/01 13:25:58;;;;;;;2.90;2.60;;;16.90;57.20;;;;;;5068706;28;20219;-88
2020/12/01 13:28:24;;;;;;;2.50;2.30;;;16.90;57.90;;;;;;5051197;28;20199;-89
2020/12/01 13:30:49;;;;;;;2.37;2.27;;;16.90;57.30;;;;;;5069351;28;20165;-90
2020/12/01 13:33:15;;;;;;;2.97;2.77;;;16.90;57.30;;;;;;5069536;28;20171;-90
2020/12/01 13:35:41;;;;;;;2.37;2.17;;;16.90;57.20;;;;;;5068427;28;20194;-88
2020/12/01 13:38:06;;;;;;;2.10;2.00;;;16.90;57.20;;;;;;5060787;28;20180;-87
2020/12/01 13:40:32;;;;;;;1.80;1.70;;;16.90;57.20;;;;;;5068454;28;21233;-89